Time,TemperatureF,DewpointF,PressureIn,WindDirection,WindDirectionDegrees,WindSpeedMPH,WindSpeedGustMPH,Humidity,HourlyPrecipIn,Conditions,Clouds,dailyrainin,SoftwareType,DateUTC
2013-01-15 00:00:00,44.3,43.8,30.11,SE,145,1.0,1.0,98,0.00,,---,2.48,VWS V14.01,2013-01-15 05:00:00,
2013-01-15 00:01:00,44.3,43.8,30.10,SSE,149,0.0,1.0,98,0.00,,---,0.00,VWS V14.01,2013-01-15 05:01:00,
2013-01-15 00:06:00,43.9,43.4,30.10,WNW,291,3.0,3.0,98,0.00,,---,0.00,VWS V14.01,2013-01-15 05:06:00,
2013-01-15 00:11:00,43.6,43.1,30.10,WNW,293,1.0,2.0,98,0.00,,---,0.00,VWS V14.01,2013-01-15 05:11:00,
2013-01-15 00:16:00,43.5,43.0,30.10,WNW,294,0.0,0.0,98,0.00,,---,0.00,VWS V14.01,2013-01-15 05:16:00,
2013-01-15 00:21:00,43.8,43.3,30.10,NNW,333,0.0,0.0,98,0.00,,---,0.00,VWS V14.01,2013-01-15 05:21:00,
2013-01-15 00:26:00,44.0,43.7,30.09,NNW,333,0.0,0.0,99,0.00,,---,0.00,VWS V14.01,2013-01-15 05:26:00,
2013-01-15 00:31:00,44.1,43.8,30.09,NNW,333,0.0,0.0,99,0.00,,---,0.00,VWS V14.01,2013-01-15 05:31:00,
2013-01-15 00:36:00,44.2,43.9,30.09,West,259,0.0,1.0,99,0.00,,---,0.00,VWS V14.01,2013-01-15 05:36:00,
2013-01-15 00:41:00,44.1,43.8,30.09,West,259,1.0,1.0,99,0.00,,---,0.00,VWS V14.01,2013-01-15 05:41:00,
2013-01-15 00:46:00,44.1,43.8,30.09,West,274,0.0,0.0,99,0.00,,---,0.00,VWS V14.01,2013-01-15 05:46:00,
2013-01-15 00:51:00,44.3,44.0,30.08,West,276,0.0,0.0,99,0.00,,---,0.00,VWS V14.01,2013-01-15 05:51:00,
2013-01-15 00:56:00,44.7,44.4,30.08,West,276,0.0,0.0,99,0.00,,---,0.00,VWS V14.01,2013-01-15 05:56:00,
2013-01-15 01:01:00,44.7,44.4,30.09,SW,228,0.0,0.0,99,0.00,,---,0.00,VWS V14.01,2013-01-15 06:01:00,
2013-01-15 01:06:00,44.5,44.2,30.09,West,271,0.0,0.0,99,0.00,,---,0.00,VWS V14.01,2013-01-15 06:06:00,
2013-01-15 01:11:00,44.6,44.3,30.09,West,271,0.0,0.0,99,0.00,,---,0.00,VWS V14.01,2013-01-15 06:11:00,
2013-01-15 01:16:00,44.6,44.3,30.09,West,271,0.0,0.0,99,0.00,,---,0.00,VWS V14.01,2013-01-15 06:16:00,
2013-01-15 01:21:00,44.6,44.3,30.10,SW,227,0.0,1.0,99,0.00,,---,0.00,VWS V14.01,2013-01-15 06:21:00,
2013-01-15 01:26:00,44.5,44.2,30.09,SW,227,0.0,0.0,99,0.00,,---,0.00,VWS V14.01,2013-01-15 06:26:00,
2013-01-15 01:31:00,44.3,44.0,30.09,SW,226,0.0,0.0,99,0.00,,---,0.00,VWS V14.01,2013-01-15 06:31:00,
2013-01-15 01:36:00,44.3,44.0,30.10,SW,226,0.0,0.0,99,0.01,,---,0.01,VWS V14.01,2013-01-15 06:36:00,
2013-01-15 01:41:00,44.1,43.8,30.08,SW,226,0.0,0.0,99,0.01,,---,0.01,VWS V14.01,2013-01-15 06:41:00,
2013-01-15 01:46:00,43.9,43.6,30.09,West,277,0.0,0.0,99,0.01,,---,0.01,VWS V14.01,2013-01-15 06:46:00,
2013-01-15 01:51:00,43.8,43.3,30.09,West,274,0.0,0.0,98,0.01,,---,0.01,VWS V14.01,2013-01-15 06:51:00,
2013-01-15 01:56:00,43.7,43.4,30.09,West,281,1.0,1.0,99,0.01,,---,0.01,VWS V14.01,2013-01-15 06:56:00,
2013-01-15 02:01:00,44.0,43.7,30.09,North,11,0.0,0.0,99,0.01,,---,0.01,VWS V14.01,2013-01-15 07:01:00,
2013-01-15 02:06:00,44.1,43.8,30.09,North,11,0.0,0.0,99,0.01,,---,0.01,VWS V14.01,2013-01-15 07:06:00,
2013-01-15 02:11:00,44.2,43.9,30.09,NW,308,0.0,0.0,99,0.01,,---,0.01,VWS V14.01,2013-01-15 07:11:00,
2013-01-15 02:16:00,44.0,43.7,30.09,West,264,0.0,0.0,99,0.01,,---,0.01,VWS V14.01,2013-01-15 07:16:00,
2013-01-15 02:21:00,44.0,43.7,30.08,West,264,0.0,0.0,99,0.01,,---,0.01,VWS V14.01,2013-01-15 07:21:00,
2013-01-15 02:26:00,44.3,44.0,30.08,West,264,0.0,0.0,99,0.01,,---,0.01,VWS V14.01,2013-01-15 07:26:00,
2013-01-15 02:31:00,44.7,44.4,30.07,West,264,0.0,0.0,99,0.01,,---,0.01,VWS V14.01,2013-01-15 07:31:00,
2013-01-15 02:36:00,45.1,44.8,30.08,West,264,0.0,0.0,99,0.00,,---,0.01,VWS V14.01,2013-01-15 07:36:00,
2013-01-15 02:41:00,46.6,46.3,30.07,West,264,0.0,0.0,99,0.00,,---,0.01,VWS V14.01,2013-01-15 07:41:00,
2013-01-15 02:46:00,48.4,48.1,30.07,WSW,238,1.0,1.0,99,0.00,,---,0.01,VWS V14.01,2013-01-15 07:46:00,
2013-01-15 02:51:00,46.5,46.2,30.07,SW,225,0.0,0.0,99,0.00,,---,0.01,VWS V14.01,2013-01-15 07:51:00,
2013-01-15 02:56:00,46.0,45.7,30.07,SW,224,1.0,1.0,99,0.00,,---,0.01,VWS V14.01,2013-01-15 07:56:00,
2013-01-15 03:01:00,45.8,45.5,30.07,ENE,65,1.0,1.0,99,0.00,,---,0.01,VWS V14.01,2013-01-15 08:01:00,
2013-01-15 03:06:00,46.5,46.2,30.06,SE,142,1.0,1.0,99,0.00,,---,0.01,VWS V14.01,2013-01-15 08:06:00,
2013-01-15 03:11:00,46.6,46.3,30.06,SE,142,0.0,0.0,99,0.00,,---,0.01,VWS V14.01,2013-01-15 08:11:00,
2013-01-15 03:16:00,47.1,46.8,30.06,SE,139,1.0,1.0,99,0.01,,---,0.02,VWS V14.01,2013-01-15 08:16:00,
2013-01-15 03:21:00,49.2,48.9,30.06,SE,139,0.0,0.0,99,0.01,,---,0.02,VWS V14.01,2013-01-15 08:21:00,
2013-01-15 03:26:00,51.0,50.7,30.06,SE,139,1.0,1.0,99,0.01,,---,0.02,VWS V14.01,2013-01-15 08:26:00,
2013-01-15 03:31:00,50.9,50.6,30.06,SSE,167,0.0,1.0,99,0.01,,---,0.02,VWS V14.01,2013-01-15 08:31:00,
2013-01-15 03:36:00,51.7,51.4,30.06,NNE,27,1.0,1.0,99,0.02,,---,0.03,VWS V14.01,2013-01-15 08:36:00,
2013-01-15 03:41:00,51.8,51.5,30.06,SSW,210,1.0,2.0,99,0.02,,---,0.03,VWS V14.01,2013-01-15 08:41:00,
2013-01-15 03:46:00,48.6,48.3,30.06,WSW,253,0.0,0.0,99,0.02,,---,0.03,VWS V14.01,2013-01-15 08:46:00,
2013-01-15 03:51:00,47.7,47.4,30.05,NNE,33,1.0,2.0,99,0.02,,---,0.03,VWS V14.01,2013-01-15 08:51:00,
2013-01-15 03:56:00,49.8,49.5,30.04,SW,215,0.0,0.0,99,0.02,,---,0.03,VWS V14.01,2013-01-15 08:56:00,
2013-01-15 04:01:00,47.9,47.6,30.05,West,266,0.0,0.0,99,0.02,,---,0.03,VWS V14.01,2013-01-15 09:01:00,
2013-01-15 04:06:00,47.3,47.0,30.05,SW,218,1.0,1.0,99,0.02,,---,0.03,VWS V14.01,2013-01-15 09:06:00,
2013-01-15 04:11:00,47.9,47.6,30.05,NE,49,1.0,1.0,99,0.03,,---,0.04,VWS V14.01,2013-01-15 09:11:00,
2013-01-15 04:16:00,51.5,51.2,30.04,NE,46,1.0,2.0,99,0.02,,---,0.04,VWS V14.01,2013-01-15 09:16:00,
2013-01-15 04:21:00,51.8,51.5,30.05,SW,221,0.0,1.0,99,0.02,,---,0.04,VWS V14.01,2013-01-15 09:21:00,
2013-01-15 04:26:00,51.0,50.7,30.05,NNE,20,0.0,0.0,99,0.02,,---,0.04,VWS V14.01,2013-01-15 09:26:00,
2013-01-15 04:31:00,50.8,50.5,30.04,South,177,2.0,2.0,99,0.02,,---,0.04,VWS V14.01,2013-01-15 09:31:00,
2013-01-15 04:36:00,50.4,50.1,30.04,SE,129,0.0,1.0,99,0.01,,---,0.04,VWS V14.01,2013-01-15 09:36:00,
2013-01-15 04:41:00,51.2,50.9,30.04,East,96,1.0,2.0,99,0.01,,---,0.04,VWS V14.01,2013-01-15 09:41:00,
2013-01-15 04:46:00,52.0,51.7,30.04,NW,309,0.0,0.0,99,0.01,,---,0.04,VWS V14.01,2013-01-15 09:46:00,
2013-01-15 04:51:00,52.6,52.3,30.04,NW,313,0.0,0.0,99,0.01,,---,0.04,VWS V14.01,2013-01-15 09:51:00,
2013-01-15 04:56:00,52.9,52.6,30.03,North,6,0.0,0.0,99,0.02,,---,0.05,VWS V14.01,2013-01-15 09:56:00,
2013-01-15 05:01:00,53.1,52.8,30.03,ESE,114,1.0,1.0,99,0.02,,---,0.05,VWS V14.01,2013-01-15 10:01:00,
2013-01-15 05:06:00,52.8,52.5,30.03,ESE,112,1.0,1.0,99,0.02,,---,0.05,VWS V14.01,2013-01-15 10:06:00,
2013-01-15 05:11:00,53.2,52.9,30.03,ESE,123,1.0,1.0,99,0.03,,---,0.07,VWS V14.01,2013-01-15 10:11:00,
2013-01-15 05:16:00,53.3,53.0,30.03,NW,305,0.0,1.0,99,0.04,,---,0.08,VWS V14.01,2013-01-15 10:16:00,
2013-01-15 05:21:00,53.5,53.2,30.03,WNW,293,0.0,0.0,99,0.04,,---,0.08,VWS V14.01,2013-01-15 10:21:00,
2013-01-15 05:26:00,53.6,53.3,30.04,WNW,293,0.0,0.0,99,0.05,,---,0.09,VWS V14.01,2013-01-15 10:26:00,
2013-01-15 05:31:00,53.6,53.3,30.03,NNE,26,1.0,2.0,99,0.07,,---,0.11,VWS V14.01,2013-01-15 10:31:00,
2013-01-15 05:36:00,53.7,53.4,30.04,NW,312,0.0,0.0,99,0.09,,---,0.13,VWS V14.01,2013-01-15 10:36:00,
2013-01-15 05:41:00,53.8,53.5,30.04,NE,39,2.0,2.0,99,0.11,,---,0.15,VWS V14.01,2013-01-15 10:41:00,
2013-01-15 05:46:00,53.8,53.5,30.04,NE,37,2.0,3.0,99,0.13,,---,0.17,VWS V14.01,2013-01-15 10:46:00,
2013-01-15 05:51:00,54.0,53.7,30.03,NW,316,0.0,0.0,99,0.15,,---,0.19,VWS V14.01,2013-01-15 10:51:00,
2013-01-15 05:56:00,53.9,53.6,30.04,North,1,0.0,1.0,99,0.16,,---,0.21,VWS V14.01,2013-01-15 10:56:00,
2013-01-15 06:01:00,54.0,53.7,30.04,East,85,1.0,1.0,99,0.17,,---,0.22,VWS V14.01,2013-01-15 11:01:00,
2013-01-15 06:06:00,54.1,53.8,30.04,NNW,329,0.0,1.0,99,0.18,,---,0.23,VWS V14.01,2013-01-15 11:06:00,
2013-01-15 06:11:00,54.0,53.7,30.05,West,278,1.0,2.0,99,0.18,,---,0.24,VWS V14.01,2013-01-15 11:11:00,
2013-01-15 06:16:00,54.1,53.8,30.05,North,355,0.0,0.0,99,0.18,,---,0.26,VWS V14.01,2013-01-15 11:16:00,
2013-01-15 06:21:00,53.6,53.3,30.05,NW,314,0.0,0.0,99,0.19,,---,0.27,VWS V14.01,2013-01-15 11:21:00,
2013-01-15 06:26:00,51.1,50.3,30.06,South,181,3.0,3.0,97,0.19,,---,0.28,VWS V14.01,2013-01-15 11:26:00,
2013-01-15 06:31:00,50.3,49.8,30.06,SSW,197,1.0,1.0,98,0.19,,---,0.30,VWS V14.01,2013-01-15 11:31:00,
2013-01-15 06:36:00,49.0,48.2,30.06,NNE,15,0.0,1.0,97,0.18,,---,0.31,VWS V14.01,2013-01-15 11:36:00,
2013-01-15 06:41:00,48.3,47.5,30.06,NNE,32,1.0,2.0,97,0.17,,---,0.32,VWS V14.01,2013-01-15 11:41:00,
2013-01-15 06:46:00,48.2,47.7,30.06,South,177,0.0,0.0,98,0.16,,---,0.33,VWS V14.01,2013-01-15 11:46:00,
2013-01-15 06:51:00,49.0,48.7,30.06,ESE,112,0.0,0.0,99,0.15,,---,0.34,VWS V14.01,2013-01-15 11:51:00,
2013-01-15 06:56:00,48.2,47.7,30.06,SSE,149,0.0,1.0,98,0.13,,---,0.34,VWS V14.01,2013-01-15 11:56:00,
2013-01-15 07:01:00,48.5,48.2,30.05,ESE,123,1.0,1.0,99,0.13,,---,0.35,VWS V14.01,2013-01-15 12:01:00,
2013-01-15 07:06:00,51.4,51.1,30.05,ESE,122,0.0,0.0,99,0.13,,---,0.36,VWS V14.01,2013-01-15 12:06:00,
2013-01-15 07:11:00,50.2,49.9,30.05,ENE,58,0.0,0.0,99,0.12,,---,0.36,VWS V14.01,2013-01-15 12:11:00,
2013-01-15 07:16:00,52.0,51.7,30.06,ENE,57,0.0,1.0,99,0.12,,---,0.37,VWS V14.01,2013-01-15 12:16:00,
2013-01-15 07:21:00,52.7,52.4,30.05,WNW,301,2.0,2.0,99,0.10,,---,0.37,VWS V14.01,2013-01-15 12:21:00,
2013-01-15 07:26:00,52.9,52.6,30.06,NNE,18,1.0,2.0,99,0.09,,---,0.37,VWS V14.01,2013-01-15 12:26:00,
2013-01-15 07:31:00,53.1,52.8,30.07,ENE,58,0.0,1.0,99,0.08,,---,0.38,VWS V14.01,2013-01-15 12:31:00,
2013-01-15 07:36:00,53.4,53.1,30.07,NE,34,0.0,1.0,99,0.07,,---,0.38,VWS V14.01,2013-01-15 12:36:00,
2013-01-15 07:41:00,53.7,53.4,30.07,NW,309,0.0,0.0,99,0.07,,---,0.39,VWS V14.01,2013-01-15 12:41:00,
2013-01-15 07:46:00,53.8,53.5,30.08,WNW,300,0.0,0.0,99,0.07,,---,0.40,VWS V14.01,2013-01-15 12:46:00,
2013-01-15 07:51:00,54.0,53.7,30.08,SE,137,0.0,0.0,99,0.07,,---,0.41,VWS V14.01,2013-01-15 12:51:00,
2013-01-15 07:56:00,52.8,52.5,30.08,East,81,2.0,2.0,99,0.08,,---,0.42,VWS V14.01,2013-01-15 12:56:00,
2013-01-15 08:01:00,52.8,52.5,30.08,NE,44,0.0,0.0,99,0.08,,---,0.43,VWS V14.01,2013-01-15 13:01:00,
2013-01-15 08:06:00,53.4,53.1,30.08,NE,44,1.0,1.0,99,0.09,,---,0.44,VWS V14.01,2013-01-15 13:06:00,
2013-01-15 08:11:00,53.6,53.3,30.08,NE,44,0.0,0.0,99,0.10,,---,0.46,VWS V14.01,2013-01-15 13:11:00,
2013-01-15 08:16:00,53.6,53.3,30.08,NE,44,0.0,1.0,99,0.11,,---,0.47,VWS V14.01,2013-01-15 13:16:00,
2013-01-15 08:21:00,53.6,53.3,30.08,NNE,29,0.0,2.0,99,0.10,,---,0.47,VWS V14.01,2013-01-15 13:21:00,
2013-01-15 08:26:00,53.7,53.4,30.08,SW,226,2.0,2.0,99,0.11,,---,0.48,VWS V14.01,2013-01-15 13:26:00,
2013-01-15 08:31:00,53.8,53.5,30.09,NW,325,1.0,2.0,99,0.11,,---,0.49,VWS V14.01,2013-01-15 13:31:00,
2013-01-15 08:36:00,53.9,53.6,30.08,ESE,103,1.0,1.0,99,0.12,,---,0.50,VWS V14.01,2013-01-15 13:36:00,
2013-01-15 08:41:00,54.0,53.7,30.09,ESE,103,1.0,2.0,99,0.13,,---,0.51,VWS V14.01,2013-01-15 13:41:00,
2013-01-15 08:46:00,54.1,53.8,30.09,North,359,0.0,2.0,99,0.11,,---,0.51,VWS V14.01,2013-01-15 13:46:00,
2013-01-15 08:51:00,54.1,53.8,30.09,WNW,284,0.0,2.0,99,0.10,,---,0.51,VWS V14.01,2013-01-15 13:51:00,
2013-01-15 08:56:00,54.0,53.5,30.09,NW,305,0.0,0.0,98,0.10,,---,0.52,VWS V14.01,2013-01-15 13:56:00,
2013-01-15 09:01:00,53.9,53.3,30.09,North,355,0.0,1.0,98,0.10,,---,0.53,VWS V14.01,2013-01-15 14:01:00,
2013-01-15 09:06:00,53.8,53.2,30.09,North,359,0.0,1.0,98,0.10,,---,0.54,VWS V14.01,2013-01-15 14:06:00,
2013-01-15 09:11:00,53.8,53.2,30.09,WNW,302,1.0,2.0,98,0.10,,---,0.55,VWS V14.01,2013-01-15 14:11:00,
2013-01-15 09:16:00,53.8,53.2,30.08,WNW,299,0.0,0.0,98,0.09,,---,0.55,VWS V14.01,2013-01-15 14:16:00,
2013-01-15 09:21:00,53.7,53.2,30.09,NNE,27,2.0,2.0,98,0.08,,---,0.55,VWS V14.01,2013-01-15 14:21:00,
2013-01-15 09:26:00,53.8,53.2,30.08,NNE,19,0.0,0.0,98,0.08,,---,0.56,VWS V14.01,2013-01-15 14:26:00,
2013-01-15 09:31:00,53.0,51.6,30.08,NNE,19,1.0,1.0,95,0.07,,---,0.56,VWS V14.01,2013-01-15 14:31:00,
2013-01-15 09:36:00,51.5,49.8,30.09,WNW,297,0.0,0.0,94,0.06,,---,0.56,VWS V14.01,2013-01-15 14:36:00,
2013-01-15 09:41:00,51.8,51.3,30.09,NNW,333,0.0,1.0,98,0.06,,---,0.56,VWS V14.01,2013-01-15 14:41:00,
2013-01-15 09:46:00,52.5,52.2,30.09,SW,214,1.0,2.0,99,0.06,,---,0.57,VWS V14.01,2013-01-15 14:46:00,
2013-01-15 09:51:00,51.7,50.9,30.10,SSW,205,1.0,2.0,97,0.06,,---,0.57,VWS V14.01,2013-01-15 14:51:00,
2013-01-15 09:56:00,50.7,49.6,30.09,West,273,0.0,1.0,96,0.06,,---,0.58,VWS V14.01,2013-01-15 14:56:00,
2013-01-15 10:01:00,50.1,49.0,30.09,West,273,0.0,0.0,96,0.05,,---,0.58,VWS V14.01,2013-01-15 15:01:00,
2013-01-15 10:06:00,49.5,48.7,30.09,SW,231,0.0,0.0,97,0.05,,---,0.59,VWS V14.01,2013-01-15 15:06:00,
2013-01-15 10:11:00,49.2,48.4,30.09,SW,214,1.0,2.0,97,0.04,,---,0.59,VWS V14.01,2013-01-15 15:11:00,
2013-01-15 10:16:00,48.9,48.4,30.09,NNE,26,0.0,2.0,98,0.04,,---,0.59,VWS V14.01,2013-01-15 15:16:00,
2013-01-15 10:21:00,48.9,48.4,30.10,NE,56,0.0,1.0,98,0.04,,---,0.59,VWS V14.01,2013-01-15 15:21:00,
2013-01-15 10:26:00,49.1,48.6,30.10,SSW,211,1.0,2.0,98,0.04,,---,0.60,VWS V14.01,2013-01-15 15:26:00,
2013-01-15 10:31:00,48.9,48.4,30.10,South,176,3.0,3.0,98,0.05,,---,0.61,VWS V14.01,2013-01-15 15:31:00,
2013-01-15 10:36:00,48.8,48.3,30.10,NW,314,1.0,2.0,98,0.06,,---,0.62,VWS V14.01,2013-01-15 15:36:00,
2013-01-15 10:41:00,50.0,49.7,30.09,ENE,57,0.0,0.0,99,0.07,,---,0.63,VWS V14.01,2013-01-15 15:41:00,
2013-01-15 10:46:00,50.1,49.8,30.09,ENE,58,0.0,1.0,99,0.06,,---,0.63,VWS V14.01,2013-01-15 15:46:00,
2013-01-15 10:51:00,50.1,49.8,30.09,North,350,0.0,1.0,99,0.07,,---,0.64,VWS V14.01,2013-01-15 15:51:00,
2013-01-15 10:56:00,50.8,50.5,30.09,NW,308,0.0,0.0,99,0.06,,---,0.64,VWS V14.01,2013-01-15 15:56:00,
2013-01-15 11:01:00,51.3,51.0,30.09,NNE,27,0.0,0.0,99,0.07,,---,0.65,VWS V14.01,2013-01-15 16:01:00,
2013-01-15 11:06:00,51.9,51.6,30.08,NNE,25,0.0,1.0,99,0.06,,---,0.65,VWS V14.01,2013-01-15 16:06:00,
2013-01-15 11:11:00,52.4,52.1,30.08,NW,308,0.0,0.0,99,0.06,,---,0.65,VWS V14.01,2013-01-15 16:11:00,
2013-01-15 11:16:00,52.6,52.3,30.08,NNE,18,0.0,0.0,99,0.07,,---,0.66,VWS V14.01,2013-01-15 16:16:00,
2013-01-15 11:21:00,52.8,52.5,30.08,North,352,0.0,1.0,99,0.07,,---,0.66,VWS V14.01,2013-01-15 16:21:00,
2013-01-15 11:26:00,52.9,52.6,30.08,NNW,345,0.0,1.0,99,0.06,,---,0.66,VWS V14.01,2013-01-15 16:26:00,
2013-01-15 11:31:00,52.9,52.6,30.08,NNW,342,0.0,0.0,99,0.05,,---,0.66,VWS V14.01,2013-01-15 16:31:00,
2013-01-15 11:36:00,53.0,52.7,30.06,NNE,19,0.0,0.0,99,0.04,,---,0.66,VWS V14.01,2013-01-15 16:36:00,
2013-01-15 11:41:00,53.1,52.8,30.06,NNE,19,0.0,0.0,99,0.03,,---,0.66,VWS V14.01,2013-01-15 16:41:00,
2013-01-15 11:46:00,53.1,52.8,30.06,WNW,293,0.0,2.0,99,0.04,,---,0.67,VWS V14.01,2013-01-15 16:46:00,
2013-01-15 11:51:00,53.3,53.0,30.06,NE,49,2.0,2.0,99,0.03,,---,0.67,VWS V14.01,2013-01-15 16:51:00,
2013-01-15 11:56:00,53.4,53.1,30.06,NE,49,0.0,0.0,99,0.03,,---,0.67,VWS V14.01,2013-01-15 16:56:00,
2013-01-15 12:01:00,53.5,53.2,30.06,NNW,336,0.0,1.0,99,0.02,,---,0.67,VWS V14.01,2013-01-15 17:01:00,
2013-01-15 12:06:00,53.5,53.2,30.06,NNW,336,0.0,0.0,99,0.02,,---,0.67,VWS V14.01,2013-01-15 17:06:00,
2013-01-15 12:11:00,53.5,53.2,30.06,North,351,1.0,1.0,99,0.02,,---,0.67,VWS V14.01,2013-01-15 17:11:00,
2013-01-15 12:16:00,53.5,53.0,30.06,WNW,302,0.0,1.0,98,0.03,,---,0.68,VWS V14.01,2013-01-15 17:16:00,
2013-01-15 12:21:00,53.4,52.8,30.05,NW,311,0.0,2.0,98,0.03,,---,0.69,VWS V14.01,2013-01-15 17:21:00,
2013-01-15 12:26:00,53.4,52.6,30.05,NNE,30,2.0,2.0,97,0.03,,---,0.69,VWS V14.01,2013-01-15 17:26:00,
2013-01-15 12:31:00,53.4,52.8,30.04,WNW,301,3.0,3.0,98,0.04,,---,0.70,VWS V14.01,2013-01-15 17:31:00,
2013-01-15 12:36:00,53.5,53.0,30.04,WNW,297,1.0,1.0,98,0.04,,---,0.70,VWS V14.01,2013-01-15 17:36:00,
2013-01-15 12:41:00,53.6,53.0,30.04,WNW,297,0.0,0.0,98,0.05,,---,0.71,VWS V14.01,2013-01-15 17:41:00,
2013-01-15 12:46:00,53.8,53.2,30.03,WNW,283,1.0,1.0,98,0.04,,---,0.71,VWS V14.01,2013-01-15 17:46:00,
2013-01-15 12:51:00,53.8,53.2,30.03,SW,226,0.0,1.0,98,0.04,,---,0.71,VWS V14.01,2013-01-15 17:51:00,
2013-01-15 12:56:00,53.9,53.1,30.03,SSW,200,0.0,0.0,97,0.04,,---,0.71,VWS V14.01,2013-01-15 17:56:00,
2013-01-15 13:01:00,54.0,53.2,30.03,NNE,33,0.0,0.0,97,0.04,,---,0.71,VWS V14.01,2013-01-15 18:01:00,
2013-01-15 13:06:00,53.9,52.8,30.03,NW,322,0.0,1.0,96,0.04,,---,0.71,VWS V14.01,2013-01-15 18:06:00,
2013-01-15 13:11:00,53.9,52.8,30.02,North,4,4.0,4.0,96,0.04,,---,0.71,VWS V14.01,2013-01-15 18:11:00,
2013-01-15 13:16:00,53.9,52.8,30.02,NW,311,2.0,5.0,96,0.03,,---,0.71,VWS V14.01,2013-01-15 18:16:00,
2013-01-15 13:21:00,53.9,52.5,30.02,SSW,205,0.0,1.0,95,0.02,,---,0.71,VWS V14.01,2013-01-15 18:21:00,
2013-01-15 13:26:00,53.9,52.5,30.02,North,355,1.0,2.0,95,0.02,,---,0.71,VWS V14.01,2013-01-15 18:26:00,
2013-01-15 13:31:00,53.8,52.7,30.02,North,9,1.0,1.0,96,0.01,,---,0.71,VWS V14.01,2013-01-15 18:31:00,
2013-01-15 13:36:00,53.8,52.4,30.02,South,173,2.0,2.0,95,0.01,,---,0.71,VWS V14.01,2013-01-15 18:36:00,
2013-01-15 13:41:00,53.8,52.4,30.01,SE,135,1.0,1.0,95,0.01,,---,0.71,VWS V14.01,2013-01-15 18:41:00,
2013-01-15 13:46:00,53.7,52.6,30.01,NNW,334,0.0,1.0,96,0.00,,---,0.71,VWS V14.01,2013-01-15 18:46:00,
2013-01-15 13:51:00,53.6,52.5,30.01,NNW,336,0.0,0.0,96,0.00,,---,0.71,VWS V14.01,2013-01-15 18:51:00,
2013-01-15 13:56:00,53.5,52.4,30.01,NNW,336,0.0,0.0,96,0.01,,---,0.72,VWS V14.01,2013-01-15 18:56:00,
2013-01-15 14:01:00,53.6,52.8,30.01,NW,314,1.0,1.0,97,0.01,,---,0.72,VWS V14.01,2013-01-15 19:01:00,
2013-01-15 14:06:00,53.5,52.4,30.01,NNW,339,1.0,1.0,96,0.01,,---,0.72,VWS V14.01,2013-01-15 19:06:00,
2013-01-15 14:11:00,53.6,52.5,30.00,SSE,162,0.0,0.0,96,0.01,,---,0.72,VWS V14.01,2013-01-15 19:11:00,
2013-01-15 14:16:00,53.7,52.3,30.00,WSW,252,0.0,0.0,95,0.01,,---,0.72,VWS V14.01,2013-01-15 19:16:00,
2013-01-15 14:21:00,53.7,52.3,30.00,NW,318,0.0,0.0,95,0.01,,---,0.72,VWS V14.01,2013-01-15 19:21:00,
2013-01-15 14:26:00,53.6,52.5,30.00,WNW,302,1.0,1.0,96,0.01,,---,0.72,VWS V14.01,2013-01-15 19:26:00,
2013-01-15 14:31:00,53.7,52.3,30.00,NW,318,1.0,2.0,95,0.01,,---,0.72,VWS V14.01,2013-01-15 19:31:00,
2013-01-15 14:36:00,53.7,52.3,29.99,South,170,0.0,2.0,95,0.01,,---,0.72,VWS V14.01,2013-01-15 19:36:00,
2013-01-15 14:41:00,53.6,51.9,29.99,West,277,1.0,1.0,94,0.01,,---,0.72,VWS V14.01,2013-01-15 19:41:00,
2013-01-15 14:46:00,53.6,52.2,30.00,North,9,0.0,1.0,95,0.01,,---,0.72,VWS V14.01,2013-01-15 19:46:00,
2013-01-15 14:51:00,53.4,52.0,30.00,SSE,150,1.0,1.0,95,0.01,,---,0.72,VWS V14.01,2013-01-15 19:51:00,
2013-01-15 14:56:00,53.2,52.1,30.00,WNW,300,0.0,1.0,96,0.01,,---,0.73,VWS V14.01,2013-01-15 19:56:00,
2013-01-15 15:01:00,53.1,52.0,30.00,WNW,301,0.0,0.0,96,0.01,,---,0.73,VWS V14.01,2013-01-15 20:01:00,
2013-01-15 15:06:00,53.0,51.9,30.00,WNW,301,0.0,1.0,96,0.01,,---,0.73,VWS V14.01,2013-01-15 20:06:00,
2013-01-15 15:11:00,52.9,52.1,30.00,NNE,20,0.0,1.0,97,0.01,,---,0.73,VWS V14.01,2013-01-15 20:11:00,
2013-01-15 15:16:00,52.9,52.1,29.99,WNW,294,1.0,1.0,97,0.01,,---,0.73,VWS V14.01,2013-01-15 20:16:00,
2013-01-15 15:21:00,52.8,52.0,29.99,NNE,19,0.0,2.0,97,0.02,,---,0.74,VWS V14.01,2013-01-15 20:21:00,
2013-01-15 15:26:00,52.8,52.0,29.99,NNE,19,0.0,0.0,97,0.02,,---,0.74,VWS V14.01,2013-01-15 20:26:00,
2013-01-15 15:31:00,52.7,51.9,30.00,North,11,2.0,2.0,97,0.02,,---,0.74,VWS V14.01,2013-01-15 20:31:00,
2013-01-15 15:36:00,52.7,51.9,30.00,NW,318,0.0,0.0,97,0.02,,---,0.74,VWS V14.01,2013-01-15 20:36:00,
2013-01-15 15:41:00,52.8,51.7,30.00,NNE,20,1.0,2.0,96,0.02,,---,0.74,VWS V14.01,2013-01-15 20:41:00,
2013-01-15 15:46:00,52.8,52.0,29.99,East,86,0.0,2.0,97,0.03,,---,0.75,VWS V14.01,2013-01-15 20:46:00,
2013-01-15 15:51:00,52.8,52.0,29.99,NNW,330,0.0,1.0,97,0.04,,---,0.76,VWS V14.01,2013-01-15 20:51:00,
2013-01-15 15:56:00,52.8,52.0,30.00,NNW,331,1.0,1.0,97,0.03,,---,0.76,VWS V14.01,2013-01-15 20:56:00,
2013-01-15 16:01:00,52.7,51.9,29.99,NNW,341,1.0,1.0,97,0.04,,---,0.77,VWS V14.01,2013-01-15 21:01:00,
2013-01-15 16:06:00,52.7,51.6,30.00,NNE,32,1.0,1.0,96,0.04,,---,0.77,VWS V14.01,2013-01-15 21:06:00,
2013-01-15 16:11:00,52.7,51.6,30.00,West,281,1.0,1.0,96,0.05,,---,0.78,VWS V14.01,2013-01-15 21:11:00,
2013-01-15 16:16:00,52.6,51.8,30.00,SSE,155,1.0,1.0,97,0.05,,---,0.78,VWS V14.01,2013-01-15 21:16:00,
2013-01-15 16:21:00,52.6,51.8,30.00,SW,228,1.0,2.0,97,0.05,,---,0.79,VWS V14.01,2013-01-15 21:21:00,
2013-01-15 16:26:00,52.6,51.5,30.00,NW,319,1.0,2.0,96,0.06,,---,0.80,VWS V14.01,2013-01-15 21:26:00,
2013-01-15 16:31:00,52.6,51.5,29.99,West,266,0.0,1.0,96,0.07,,---,0.81,VWS V14.01,2013-01-15 21:31:00,
2013-01-15 16:36:00,52.5,51.4,30.00,NE,51,1.0,2.0,96,0.07,,---,0.81,VWS V14.01,2013-01-15 21:36:00,
2013-01-15 16:41:00,52.5,51.4,30.00,ESE,123,0.0,1.0,96,0.08,,---,0.82,VWS V14.01,2013-01-15 21:41:00,
2013-01-15 16:46:00,52.5,51.4,30.00,East,95,1.0,2.0,96,0.08,,---,0.83,VWS V14.01,2013-01-15 21:46:00,
2013-01-15 16:51:00,52.7,51.6,29.99,NNW,328,2.0,2.0,96,0.08,,---,0.83,VWS V14.01,2013-01-15 21:51:00,
2013-01-15 16:56:00,52.8,51.7,29.99,NW,305,3.0,3.0,96,0.07,,---,0.83,VWS V14.01,2013-01-15 21:56:00,
2013-01-15 17:01:00,52.7,51.6,29.99,North,353,1.0,1.0,96,0.06,,---,0.83,VWS V14.01,2013-01-15 22:01:00,
2013-01-15 17:06:00,52.7,51.6,29.99,ENE,63,3.0,3.0,96,0.06,,---,0.83,VWS V14.01,2013-01-15 22:06:00,
2013-01-15 17:11:00,52.9,51.8,29.99,WNW,285,2.0,2.0,96,0.06,,---,0.84,VWS V14.01,2013-01-15 22:11:00,
2013-01-15 17:16:00,53.0,51.6,29.99,West,278,0.0,2.0,95,0.06,,---,0.84,VWS V14.01,2013-01-15 22:16:00,
2013-01-15 17:21:00,53.0,51.9,30.00,NNW,341,4.0,5.0,96,0.05,,---,0.84,VWS V14.01,2013-01-15 22:21:00,
2013-01-15 17:26:00,53.0,51.6,30.00,WNW,283,1.0,4.0,95,0.04,,---,0.84,VWS V14.01,2013-01-15 22:26:00,
2013-01-15 17:31:00,53.1,52.0,30.00,SE,142,0.0,1.0,96,0.03,,---,0.84,VWS V14.01,2013-01-15 22:31:00,
2013-01-15 17:36:00,53.2,51.8,30.01,NNE,22,1.0,1.0,95,0.03,,---,0.84,VWS V14.01,2013-01-15 22:36:00,
2013-01-15 17:41:00,53.2,52.1,30.02,WNW,297,2.0,3.0,96,0.02,,---,0.84,VWS V14.01,2013-01-15 22:41:00,
2013-01-15 17:46:00,53.2,52.1,30.01,South,172,1.0,1.0,96,0.05,,---,0.87,VWS V14.01,2013-01-15 22:46:00,
2013-01-15 17:51:00,53.0,51.9,30.01,NNE,32,1.0,2.0,96,0.06,,---,0.89,VWS V14.01,2013-01-15 22:51:00,
2013-01-15 17:56:00,52.8,51.7,30.00,NW,309,0.0,2.0,96,0.07,,---,0.90,VWS V14.01,2013-01-15 22:56:00,
2013-01-15 18:01:00,52.7,51.9,30.00,North,9,0.0,1.0,97,0.08,,---,0.91,VWS V14.01,2013-01-15 23:01:00,
2013-01-15 18:06:00,52.6,51.8,30.00,NW,305,1.0,1.0,97,0.08,,---,0.91,VWS V14.01,2013-01-15 23:06:00,
2013-01-15 18:11:00,52.7,51.9,30.00,NW,304,0.0,0.0,97,0.08,,---,0.92,VWS V14.01,2013-01-15 23:11:00,
2013-01-15 18:16:00,52.8,52.0,30.00,NW,322,0.0,2.0,97,0.09,,---,0.93,VWS V14.01,2013-01-15 23:16:00,
2013-01-15 18:21:00,52.9,52.1,30.01,SW,218,0.0,1.0,97,0.11,,---,0.95,VWS V14.01,2013-01-15 23:21:00,
2013-01-15 18:26:00,52.8,52.0,30.01,East,99,1.0,2.0,97,0.12,,---,0.96,VWS V14.01,2013-01-15 23:26:00,
2013-01-15 18:31:00,52.8,52.0,30.02,NNW,335,0.0,1.0,97,0.14,,---,0.98,VWS V14.01,2013-01-15 23:31:00,
2013-01-15 18:36:00,52.9,52.1,30.03,East,90,1.0,1.0,97,0.16,,---,1.00,VWS V14.01,2013-01-15 23:36:00,
2013-01-15 18:41:00,53.0,52.2,30.03,WSW,245,0.0,2.0,97,0.17,,---,1.01,VWS V14.01,2013-01-15 23:41:00,
2013-01-15 18:46:00,53.0,51.9,30.02,SSE,167,1.0,3.0,96,0.17,,---,1.03,VWS V14.01,2013-01-15 23:46:00,
2013-01-15 18:51:00,53.0,51.9,30.02,SE,134,0.0,0.0,96,0.16,,---,1.04,VWS V14.01,2013-01-15 23:51:00,
2013-01-15 18:56:00,52.9,52.1,30.01,SSE,153,0.0,1.0,97,0.15,,---,1.05,VWS V14.01,2013-01-15 23:56:00,
2013-01-15 19:01:00,52.8,52.0,30.01,NNW,346,0.0,1.0,97,0.14,,---,1.05,VWS V14.01,2013-01-16 00:01:00,
2013-01-15 19:06:00,52.8,52.0,30.02,NNW,346,0.0,0.0,97,0.14,,---,1.05,VWS V14.01,2013-01-16 00:06:00,
2013-01-15 19:11:00,52.7,51.9,30.02,WSW,257,2.0,3.0,97,0.13,,---,1.05,VWS V14.01,2013-01-16 00:11:00,
2013-01-15 19:16:00,52.7,51.6,30.02,WNW,284,0.0,0.0,96,0.12,,---,1.05,VWS V14.01,2013-01-16 00:16:00,
2013-01-15 19:21:00,52.6,51.5,30.02,West,276,1.0,2.0,96,0.11,,---,1.05,VWS V14.01,2013-01-16 00:21:00,
2013-01-15 19:26:00,52.6,51.5,30.01,NE,39,0.0,1.0,96,0.09,,---,1.05,VWS V14.01,2013-01-16 00:26:00,
2013-01-15 19:31:00,52.5,51.4,30.01,NE,39,1.0,1.0,96,0.09,,---,1.07,VWS V14.01,2013-01-16 00:31:00,
2013-01-15 19:36:00,52.4,51.3,30.01,NNE,20,0.0,1.0,96,0.08,,---,1.07,VWS V14.01,2013-01-16 00:36:00,
2013-01-15 19:41:00,52.2,51.4,30.00,NNE,20,0.0,1.0,97,0.06,,---,1.07,VWS V14.01,2013-01-16 00:41:00,
2013-01-15 19:46:00,52.1,51.3,30.00,East,82,1.0,2.0,97,0.04,,---,1.07,VWS V14.01,2013-01-16 00:46:00,
2013-01-15 19:51:00,52.1,51.3,30.00,East,86,1.0,1.0,97,0.03,,---,1.07,VWS V14.01,2013-01-16 00:51:00,
2013-01-15 19:56:00,52.0,50.9,30.00,NNE,32,3.0,5.0,96,0.02,,---,1.07,VWS V14.01,2013-01-16 00:56:00,
2013-01-15 20:01:00,52.0,50.9,29.99,ENE,72,2.0,6.0,96,0.02,,---,1.07,VWS V14.01,2013-01-16 01:01:00,
2013-01-15 20:06:00,52.0,51.2,29.99,East,79,1.0,1.0,97,0.02,,---,1.07,VWS V14.01,2013-01-16 01:06:00,
2013-01-15 20:11:00,52.1,51.0,29.99,WNW,290,1.0,1.0,96,0.03,,---,1.08,VWS V14.01,2013-01-16 01:11:00,
2013-01-15 20:16:00,52.1,51.0,29.99,SE,136,1.0,1.0,96,0.03,,---,1.08,VWS V14.01,2013-01-16 01:16:00,
2013-01-15 20:21:00,52.0,51.2,29.99,South,170,1.0,3.0,97,0.03,,---,1.08,VWS V14.01,2013-01-16 01:21:00,
2013-01-15 20:26:00,52.0,50.9,29.98,ESE,102,1.0,6.0,96,0.03,,---,1.08,VWS V14.01,2013-01-16 01:26:00,
2013-01-15 20:31:00,52.0,50.9,29.98,NNE,25,1.0,1.0,96,0.02,,---,1.08,VWS V14.01,2013-01-16 01:31:00,
2013-01-15 20:36:00,52.0,50.9,29.98,NW,319,1.0,2.0,96,0.01,,---,1.08,VWS V14.01,2013-01-16 01:36:00,
2013-01-15 20:41:00,52.0,50.9,29.98,NE,34,0.0,0.0,96,0.01,,---,1.08,VWS V14.01,2013-01-16 01:41:00,
2013-01-15 20:46:00,51.9,50.8,29.99,NW,319,1.0,1.0,96,0.03,,---,1.10,VWS V14.01,2013-01-16 01:46:00,
2013-01-15 20:51:00,51.7,50.9,29.98,ESE,107,1.0,1.0,97,0.03,,---,1.10,VWS V14.01,2013-01-16 01:51:00,
2013-01-15 20:56:00,51.7,50.9,29.98,North,360,0.0,0.0,97,0.03,,---,1.10,VWS V14.01,2013-01-16 01:56:00,
2013-01-15 21:01:00,51.7,50.9,29.98,NNE,25,1.0,1.0,97,0.03,,---,1.10,VWS V14.01,2013-01-16 02:01:00,
2013-01-15 21:06:00,51.8,50.7,29.98,East,87,0.0,1.0,96,0.03,,---,1.10,VWS V14.01,2013-01-16 02:06:00,
2013-01-15 21:11:00,51.8,50.7,29.98,ENE,68,0.0,1.0,96,0.02,,---,1.10,VWS V14.01,2013-01-16 02:11:00,
2013-01-15 21:16:00,51.8,51.0,29.98,ENE,68,0.0,2.0,97,0.02,,---,1.10,VWS V14.01,2013-01-16 02:16:00,
2013-01-15 21:21:00,51.7,50.9,29.98,NW,315,4.0,4.0,97,0.02,,---,1.10,VWS V14.01,2013-01-16 02:21:00,
2013-01-15 21:26:00,51.7,50.9,29.98,NE,50,4.0,4.0,97,0.02,,---,1.10,VWS V14.01,2013-01-16 02:26:00,
2013-01-15 21:31:00,51.8,51.0,29.98,NE,56,2.0,2.0,97,0.02,,---,1.10,VWS V14.01,2013-01-16 02:31:00,
2013-01-15 21:36:00,51.7,50.6,29.98,NNE,27,2.0,2.0,96,0.03,,---,1.11,VWS V14.01,2013-01-16 02:36:00,
2013-01-15 21:41:00,51.8,50.7,29.98,South,175,1.0,1.0,96,0.03,,---,1.11,VWS V14.01,2013-01-16 02:41:00,
2013-01-15 21:46:00,51.8,50.7,29.98,West,262,2.0,5.0,96,0.02,,---,1.11,VWS V14.01,2013-01-16 02:46:00,
2013-01-15 21:51:00,51.8,50.7,29.98,SW,235,1.0,2.0,96,0.01,,---,1.11,VWS V14.01,2013-01-16 02:51:00,
2013-01-15 21:56:00,51.9,50.8,29.98,NW,304,0.0,0.0,96,0.01,,---,1.11,VWS V14.01,2013-01-16 02:56:00,
2013-01-15 22:01:00,52.0,50.9,29.97,WNW,295,2.0,3.0,96,0.01,,---,1.11,VWS V14.01,2013-01-16 03:01:00,
2013-01-15 22:06:00,52.1,51.0,29.98,WSW,250,1.0,2.0,96,0.01,,---,1.11,VWS V14.01,2013-01-16 03:06:00,
2013-01-15 22:11:00,52.2,51.1,29.97,NNE,32,0.0,1.0,96,0.01,,---,1.11,VWS V14.01,2013-01-16 03:11:00,
2013-01-15 22:16:00,52.1,51.0,29.97,NE,41,2.0,3.0,96,0.01,,---,1.11,VWS V14.01,2013-01-16 03:16:00,
2013-01-15 22:21:00,52.1,51.3,29.98,NNW,340,2.0,2.0,97,0.01,,---,1.11,VWS V14.01,2013-01-16 03:21:00,
2013-01-15 22:26:00,52.2,51.4,29.98,NNE,22,1.0,2.0,97,0.01,,---,1.11,VWS V14.01,2013-01-16 03:26:00,
2013-01-15 22:31:00,52.2,51.4,29.98,WNW,298,1.0,2.0,97,0.01,,---,1.11,VWS V14.01,2013-01-16 03:31:00,
2013-01-15 22:36:00,52.3,51.5,29.98,WNW,284,3.0,4.0,97,0.00,,---,1.11,VWS V14.01,2013-01-16 03:36:00,
2013-01-15 22:41:00,52.7,51.3,29.98,South,183,0.0,0.0,95,0.00,,---,1.11,VWS V14.01,2013-01-16 03:41:00,
2013-01-15 22:46:00,53.1,51.4,29.98,ENE,73,1.0,3.0,94,0.00,,---,1.11,VWS V14.01,2013-01-16 03:46:00,
2013-01-15 22:51:00,53.3,51.6,29.98,NW,321,2.0,3.0,94,0.00,,---,1.11,VWS V14.01,2013-01-16 03:51:00,
2013-01-15 22:56:00,53.3,51.3,29.98,SSE,166,1.0,3.0,93,0.00,,---,1.11,VWS V14.01,2013-01-16 03:56:00,
2013-01-15 23:01:00,53.4,51.4,29.97,NNE,25,0.0,1.0,93,0.00,,---,1.11,VWS V14.01,2013-01-16 04:01:00,
2013-01-15 23:06:00,53.5,51.5,29.97,West,259,4.0,6.0,93,0.00,,---,1.11,VWS V14.01,2013-01-16 04:06:00,
2013-01-15 23:11:00,53.6,51.6,29.97,ENE,61,3.0,3.0,93,0.00,,---,1.11,VWS V14.01,2013-01-16 04:11:00,
2013-01-15 23:16:00,53.4,51.4,29.97,West,260,1.0,3.0,93,0.00,,---,1.11,VWS V14.01,2013-01-16 04:16:00,
2013-01-15 23:21:00,53.5,51.5,29.97,SSE,155,1.0,3.0,93,0.00,,---,1.11,VWS V14.01,2013-01-16 04:21:00,
2013-01-15 23:26:00,53.8,51.8,29.96,WSW,248,0.0,2.0,93,0.00,,---,1.11,VWS V14.01,2013-01-16 04:26:00,
2013-01-15 23:31:00,53.6,51.6,29.96,SE,140,0.0,1.0,93,0.00,,---,1.11,VWS V14.01,2013-01-16 04:31:00,
2013-01-15 23:36:00,53.4,51.7,29.96,ENE,63,1.0,2.0,94,0.00,,---,1.11,VWS V14.01,2013-01-16 04:36:00,
2013-01-15 23:41:00,53.4,51.7,29.96,NNE,18,1.0,2.0,94,0.00,,---,1.11,VWS V14.01,2013-01-16 04:41:00,
2013-01-15 23:46:00,53.4,51.4,29.96,WNW,283,4.0,6.0,93,0.00,,---,1.11,VWS V14.01,2013-01-16 04:46:00,
2013-01-15 23:51:00,53.7,51.7,29.96,NW,318,1.0,3.0,93,0.00,,---,1.11,VWS V14.01,2013-01-16 04:51:00,
2013-01-15 23:56:00,53.8,51.5,29.96,West,278,1.0,3.0,92,0.00,,---,1.11,VWS V14.01,2013-01-16 04:56:00,